Covell, Illinois
Current Conditions -  °F | °C
As of 7:56 PM on Wednesday 22 Oct 2014 (Local Time) from KBMI Reporting Station
Clear Clear  
Wind Chill: 44°   Ceiling: Unl
Heat Index: 47°   Visibility: 10mi
Dew Point: 36°   Wind: 7mph
Humidity: 66%   Direction: 130°SE
Pressure: 30.25"   Gusts: NA
Location:  40.4664°N, 88.9822°W
Report Text: KBMI 230056Z 13006KT 10SM CLR 08/02 A3025 RMK AO2 T00830022 SLP251
Loading
Personal Weather Stations






























Interactive Weather Map
Tropical Storm Tracking
New forecast layout! Learn more

10-Day Weather Forecast

Advertisements
Track Severe Weather on mobile